createdAt,value
2022-10-23T00:00:32.990Z,21.65
2022-10-23T00:01:37.451Z,21.56
2022-10-23T00:02:41.874Z,21.72
2022-10-23T00:03:47.435Z,21.58
2022-10-23T00:04:52.116Z,21.43
2022-10-23T00:05:56.251Z,21.26
2022-10-23T00:07:00.350Z,21.18
2022-10-23T00:08:04.441Z,21.17
2022-10-23T00:09:08.559Z,21.08
2022-10-23T00:10:12.641Z,21.03
2022-10-23T00:11:16.749Z,21.05
2022-10-23T00:12:20.834Z,21.08
2022-10-23T00:13:24.926Z,21.04
2022-10-23T00:14:29.025Z,21.08
2022-10-23T00:15:33.123Z,21.05
2022-10-23T00:16:37.209Z,21.03
2022-10-23T00:17:42.032Z,21.04
2022-10-23T00:18:47.562Z,21.06
2022-10-23T00:19:52.254Z,21.1
2022-10-23T00:20:56.318Z,21.07
2022-10-23T00:22:00.442Z,21.04
2022-10-23T00:23:04.517Z,21.1
2022-10-23T00:25:13.722Z,20.99
2022-10-23T00:26:17.793Z,20.96
2022-10-23T00:27:21.905Z,20.94
2022-10-23T00:28:26.003Z,20.94
2022-10-23T00:29:30.066Z,20.98
2022-10-23T00:30:34.152Z,21.07
2022-10-23T00:31:38.266Z,21.07
2022-10-23T00:32:42.388Z,20.98
2022-10-23T00:33:46.465Z,20.96
2022-10-23T00:34:50.570Z,20.93
2022-10-23T00:35:54.641Z,20.93
2022-10-23T00:36:58.765Z,20.98
2022-10-23T00:38:02.874Z,21.01
2022-10-23T00:39:06.973Z,21.03
2022-10-23T00:40:11.072Z,20.99
2022-10-23T00:41:15.171Z,20.95
2022-10-23T00:42:19.245Z,20.93
2022-10-23T00:43:23.341Z,20.92
2022-10-23T00:44:27.408Z,20.93
2022-10-23T00:45:31.483Z,20.88
2022-10-23T00:46:35.611Z,20.87
2022-10-23T00:47:39.697Z,20.85
2022-10-23T00:48:43.802Z,20.84
2022-10-23T00:49:47.872Z,20.83
2022-10-23T00:50:51.947Z,20.86
2022-10-23T00:51:56.057Z,20.82
2022-10-23T00:53:00.154Z,20.86
2022-10-23T00:54:23.764Z,20.86
2022-10-23T00:55:28.839Z,20.89
2022-10-23T00:56:32.912Z,20.89
2022-10-23T00:57:37.007Z,20.88
2022-10-23T00:58:41.116Z,20.87
2022-10-23T00:59:45.224Z,20.85
2022-10-23T01:00:49.310Z,20.85
2022-10-23T01:01:53.541Z,20.83
2022-10-23T01:02:58.081Z,20.83
2022-10-23T01:04:02.166Z,20.79
2022-10-23T01:05:06.253Z,20.8
2022-10-23T01:06:10.321Z,20.81
2022-10-23T01:07:14.401Z,20.83
2022-10-23T01:08:18.482Z,20.84
2022-10-23T01:09:22.554Z,20.82
2022-10-23T01:10:26.657Z,20.8
2022-10-23T01:11:30.754Z,20.81
2022-10-23T01:12:34.834Z,20.6
2022-10-23T01:13:38.906Z,20.89
2022-10-23T01:14:43.022Z,20.91
2022-10-23T01:15:47.135Z,20.89
2022-10-23T01:16:51.219Z,20.86
2022-10-23T01:17:55.311Z,20.85
2022-10-23T01:18:59.383Z,20.9
2022-10-23T01:20:03.486Z,20.94
2022-10-23T01:21:07.613Z,20.92
2022-10-23T01:22:11.744Z,20.88
2022-10-23T01:23:15.997Z,20.88
2022-10-23T01:24:20.071Z,20.84
2022-10-23T01:25:24.140Z,20.85
2022-10-23T01:26:28.236Z,20.8
2022-10-23T01:27:32.313Z,20.85
2022-10-23T01:28:36.399Z,20.85
2022-10-23T01:29:40.463Z,20.87
2022-10-23T01:30:44.578Z,20.84
2022-10-23T01:31:48.697Z,20.83
2022-10-23T01:32:52.759Z,20.82
2022-10-23T01:33:56.843Z,20.82
2022-10-23T01:35:00.928Z,20.81
2022-10-23T01:36:05.063Z,20.82
2022-10-23T01:37:09.142Z,20.84
2022-10-23T01:38:13.358Z,20.82
2022-10-23T01:39:17.475Z,20.8
2022-10-23T01:40:21.566Z,20.78
2022-10-23T01:41:25.641Z,20.73
2022-10-23T01:42:29.742Z,20.76
2022-10-23T01:43:33.832Z,20.76
2022-10-23T01:44:37.934Z,20.72
2022-10-23T01:45:42.009Z,20.72
2022-10-23T01:46:46.091Z,20.75
2022-10-23T01:47:50.212Z,20.75
2022-10-23T01:48:54.296Z,20.76
2022-10-23T01:49:58.375Z,20.72
2022-10-23T01:51:02.463Z,20.71
2022-10-23T01:52:06.555Z,20.71
2022-10-23T01:53:10.640Z,20.72
2022-10-23T01:54:14.710Z,20.74
2022-10-23T01:55:18.760Z,20.7
2022-10-23T01:56:22.873Z,20.74
2022-10-23T01:57:26.981Z,20.74
2022-10-23T01:58:31.073Z,20.69
2022-10-23T01:59:35.177Z,20.7
2022-10-23T02:00:39.265Z,20.7
2022-10-23T02:01:43.476Z,20.72
2022-10-23T02:02:48.020Z,20.72
2022-10-23T02:03:52.192Z,20.72
2022-10-23T02:04:56.501Z,20.68
2022-10-23T02:06:00.567Z,20.71
2022-10-23T02:07:04.648Z,20.71
2022-10-23T02:08:08.714Z,20.73
2022-10-23T02:09:13.133Z,20.72
2022-10-23T02:10:17.189Z,20.72
2022-10-23T02:11:21.277Z,20.72
2022-10-23T02:12:25.360Z,20.71
2022-10-23T02:13:30.449Z,20.72
2022-10-23T02:14:34.589Z,20.68
2022-10-23T02:15:38.664Z,20.62
2022-10-23T02:16:42.737Z,20.7
2022-10-23T02:17:46.819Z,20.71
2022-10-23T02:18:50.932Z,20.71
2022-10-23T02:19:55.031Z,20.7
2022-10-23T02:20:59.122Z,20.7
2022-10-23T02:22:03.173Z,20.62
2022-10-23T02:23:07.267Z,20.66
2022-10-23T02:24:11.342Z,20.7
2022-10-23T02:25:15.431Z,20.7
2022-10-23T02:26:19.492Z,20.69
2022-10-23T02:27:23.600Z,20.69
2022-10-23T02:28:27.662Z,20.67
2022-10-23T02:29:31.733Z,20.7
2022-10-23T02:30:35.831Z,20.65
2022-10-23T02:31:39.957Z,20.68
2022-10-23T02:32:44.210Z,20.66
2022-10-23T02:33:48.710Z,20.67
2022-10-23T02:34:52.762Z,20.66
2022-10-23T02:35:56.881Z,20.62
2022-10-23T02:37:00.971Z,20.67
2022-10-23T02:38:05.046Z,20.66
2022-10-23T02:39:09.136Z,20.66
2022-10-23T02:40:13.226Z,20.67
2022-10-23T02:41:17.300Z,20.67
2022-10-23T02:42:21.395Z,20.66
2022-10-23T02:43:25.498Z,20.66
2022-10-23T02:44:29.584Z,20.66
2022-10-23T02:45:33.695Z,20.65
2022-10-23T02:46:37.926Z,20.66
2022-10-23T02:47:42.268Z,20.66
2022-10-23T02:48:47.297Z,20.65
2022-10-23T02:49:51.404Z,20.62
2022-10-23T02:50:55.489Z,20.66
2022-10-23T02:51:59.559Z,20.66
2022-10-23T02:53:03.693Z,20.65
2022-10-23T02:54:07.763Z,20.65
2022-10-23T02:55:11.860Z,20.65
2022-10-23T02:56:16.002Z,20.65
2022-10-23T02:57:20.108Z,20.65
2022-10-23T02:58:24.184Z,20.62
2022-10-23T02:59:28.266Z,20.66
2022-10-23T03:00:32.357Z,20.61
2022-10-23T03:01:36.579Z,20.64
2022-10-23T03:02:41.191Z,20.65
2022-10-23T03:03:45.315Z,20.62
2022-10-23T03:04:49.424Z,20.65
2022-10-23T03:05:53.516Z,20.62
2022-10-23T03:06:57.586Z,20.65
2022-10-23T03:08:01.696Z,20.64
2022-10-23T03:09:05.760Z,20.65
2022-10-23T03:10:09.827Z,20.64
2022-10-23T03:11:13.884Z,20.62
2022-10-23T03:12:17.964Z,20.61
2022-10-23T03:13:22.038Z,20.64
2022-10-23T03:14:26.098Z,20.65
2022-10-23T03:15:30.152Z,20.62
2022-10-23T03:16:34.239Z,20.65
2022-10-23T03:17:38.335Z,20.64
2022-10-23T03:18:42.440Z,20.64
2022-10-23T03:19:46.536Z,20.64
2022-10-23T03:20:50.629Z,20.64
2022-10-23T03:21:54.744Z,20.64
2022-10-23T03:22:58.921Z,20.61
2022-10-23T03:24:03.052Z,20.64
2022-10-23T03:25:07.150Z,20.64
2022-10-23T03:26:11.279Z,20.64
2022-10-23T03:27:15.406Z,20.64
2022-10-23T03:28:19.677Z,20.63
2022-10-23T03:29:23.786Z,20.63
2022-10-23T03:30:27.900Z,20.63
2022-10-23T03:31:32.024Z,20.6
2022-10-23T03:32:36.143Z,20.63
2022-10-23T03:33:40.257Z,20.63
2022-10-23T03:34:44.356Z,20.63
2022-10-23T03:36:52.641Z,20.59
2022-10-23T03:37:56.788Z,20.62
2022-10-23T03:39:00.901Z,20.62
2022-10-23T03:40:05.028Z,20.62
2022-10-23T03:41:09.132Z,20.62
2022-10-23T03:42:13.196Z,20.63
2022-10-23T03:43:17.294Z,20.62
2022-10-23T03:44:21.368Z,20.62
2022-10-23T03:45:25.467Z,20.6
2022-10-23T03:46:29.571Z,20.63
2022-10-23T03:47:33.660Z,20.66
2022-10-23T03:48:37.865Z,20.64
2022-10-23T03:49:41.968Z,20.63
2022-10-23T03:50:46.068Z,20.62
2022-10-23T03:51:50.150Z,20.59
2022-10-23T03:52:54.268Z,20.61
2022-10-23T03:53:58.373Z,20.61
2022-10-23T03:55:02.472Z,20.57
2022-10-23T03:56:06.580Z,20.61
2022-10-23T03:57:10.655Z,20.61
2022-10-23T03:58:14.763Z,20.61
2022-10-23T03:59:18.832Z,20.6
2022-10-23T04:00:22.944Z,20.6
2022-10-23T04:01:27.213Z,20.57
2022-10-23T04:02:31.797Z,20.56
2022-10-23T04:03:36.121Z,20.55
2022-10-23T04:04:40.212Z,20.6
2022-10-23T04:05:44.305Z,20.62
2022-10-23T04:06:48.424Z,20.62
2022-10-23T04:07:53.108Z,20.67
2022-10-23T04:08:57.265Z,20.72
2022-10-23T04:10:01.491Z,20.77
2022-10-23T04:11:05.623Z,20.79
2022-10-23T04:12:09.706Z,20.85
2022-10-23T04:13:13.797Z,20.89
2022-10-23T04:14:17.889Z,20.94
2022-10-23T04:15:21.959Z,20.95
2022-10-23T04:16:26.181Z,20.91
2022-10-23T04:17:30.290Z,20.92
2022-10-23T04:18:34.464Z,20.96
2022-10-23T04:19:38.563Z,20.96
2022-10-23T04:20:42.654Z,20.95
2022-10-23T04:21:46.759Z,20.96
2022-10-23T04:22:50.855Z,20.95
2022-10-23T04:23:54.911Z,20.4
2022-10-23T04:24:58.967Z,20.94
2022-10-23T04:26:03.088Z,20.93
2022-10-23T04:27:07.178Z,20.93
2022-10-23T04:28:11.281Z,20.54
2022-10-23T04:29:15.390Z,20.94
2022-10-23T04:30:19.484Z,20.94
2022-10-23T04:31:23.570Z,20.97
2022-10-23T04:32:27.662Z,21
2022-10-23T04:33:31.792Z,21.02
2022-10-23T04:34:35.862Z,21.01
2022-10-23T04:35:39.940Z,21.01
2022-10-23T04:36:44.036Z,21.01
2022-10-23T04:37:48.130Z,21.03
2022-10-23T04:38:52.213Z,21.01
2022-10-23T04:39:56.293Z,21.02
2022-10-23T04:41:00.414Z,21.02
2022-10-23T04:42:04.506Z,21
2022-10-23T04:43:08.694Z,20.96
2022-10-23T04:44:12.805Z,20.97
2022-10-23T04:45:16.873Z,20.94
2022-10-23T04:46:20.924Z,20.98
2022-10-23T04:47:24.997Z,20.97
2022-10-23T04:48:29.182Z,20.97
2022-10-23T04:49:33.445Z,20.95
2022-10-23T04:50:37.513Z,20.96
2022-10-23T04:51:41.712Z,20.95
2022-10-23T04:52:45.868Z,20.97
2022-10-23T04:53:50.027Z,21
2022-10-23T04:54:54.115Z,21.03
2022-10-23T04:55:58.182Z,21.02
2022-10-23T04:57:02.359Z,21.05
2022-10-23T04:58:06.413Z,21.05
2022-10-23T04:59:10.502Z,21.05
2022-10-23T05:00:14.587Z,21.04
2022-10-23T05:01:18.734Z,21.04
2022-10-23T05:02:23.127Z,21.01
2022-10-23T05:03:27.231Z,21.02
2022-10-23T05:04:31.289Z,21.03
2022-10-23T05:05:35.409Z,21.03
2022-10-23T05:06:39.496Z,21.02
2022-10-23T05:07:43.763Z,21
2022-10-23T05:08:48.770Z,21
2022-10-23T05:09:52.872Z,21
2022-10-23T05:10:56.990Z,20.95
2022-10-23T05:12:01.103Z,20.95
2022-10-23T05:13:05.202Z,20.94
2022-10-23T05:14:09.309Z,20.99
2022-10-23T05:15:13.404Z,20.97
2022-10-23T05:16:17.489Z,20.97
2022-10-23T05:17:21.568Z,20.96
2022-10-23T05:18:25.659Z,20.94
2022-10-23T05:19:29.721Z,20.94
2022-10-23T05:20:33.804Z,20.95
2022-10-23T05:21:37.903Z,20.94
2022-10-23T05:22:42.035Z,20.97
2022-10-23T05:23:46.299Z,20.96
2022-10-23T05:24:50.794Z,20.96
2022-10-23T05:25:54.992Z,20.91
2022-10-23T05:26:59.101Z,20.94
2022-10-23T05:28:03.193Z,20.95
2022-10-23T05:29:07.270Z,20.97
2022-10-23T05:30:11.375Z,21
2022-10-23T05:31:15.451Z,21.02
2022-10-23T05:33:24.691Z,21.12
2022-10-23T05:34:28.811Z,21.16
2022-10-23T05:35:32.917Z,21.17
2022-10-23T05:36:36.995Z,21.15
2022-10-23T05:37:41.074Z,21.19
2022-10-23T05:38:45.180Z,21.2
2022-10-23T05:39:49.280Z,21.2
2022-10-23T05:40:53.332Z,21.16
2022-10-23T05:41:57.411Z,21.17
2022-10-23T05:43:01.485Z,21.16
2022-10-23T05:44:05.578Z,21.15
2022-10-23T05:45:09.646Z,21.15
2022-10-23T05:46:13.742Z,21.12
2022-10-23T05:47:17.885Z,21.11
2022-10-23T05:48:34.139Z,21.09
2022-10-23T05:49:38.882Z,21.1
2022-10-23T05:50:42.980Z,21.1
2022-10-23T05:51:47.065Z,21.09
2022-10-23T05:52:51.122Z,21.08
2022-10-23T05:53:55.224Z,21.09
2022-10-23T05:54:59.306Z,21.07
2022-10-23T05:56:03.503Z,20.98
2022-10-23T05:57:07.666Z,21.06
2022-10-23T05:58:11.994Z,21.01
2022-10-23T05:59:19.028Z,21.04
2022-10-23T06:00:26.511Z,21.03
2022-10-23T06:01:30.686Z,21.03
2022-10-23T06:02:35.356Z,21.02
2022-10-23T06:03:39.691Z,21.02
2022-10-23T06:04:43.796Z,21.01
2022-10-23T06:05:47.906Z,21.02
2022-10-23T06:06:52.132Z,20.99
2022-10-23T06:07:56.271Z,21
2022-10-23T06:09:00.437Z,20.99
2022-10-23T06:10:04.555Z,21
2022-10-23T06:11:08.655Z,20.96
2022-10-23T06:12:12.807Z,20.96
2022-10-23T06:13:16.974Z,21
2022-10-23T06:14:21.128Z,21
2022-10-23T06:15:25.227Z,20.98
2022-10-23T06:16:29.323Z,21
2022-10-23T06:17:33.403Z,21.01
2022-10-23T06:18:37.492Z,20.97
2022-10-23T06:19:41.580Z,21.05
2022-10-23T06:20:45.683Z,21.04
2022-10-23T06:21:49.757Z,20.94
2022-10-23T06:22:53.837Z,21.03
2022-10-23T06:23:57.900Z,20.98
2022-10-23T06:25:01.978Z,21.02
2022-10-23T06:26:06.052Z,20.97
2022-10-23T06:27:10.154Z,21
2022-10-23T06:28:15.856Z,21
2022-10-23T06:29:23.992Z,21
2022-10-23T06:30:28.185Z,20.95
2022-10-23T06:31:32.513Z,21.01
2022-10-23T06:32:36.609Z,20.99
2022-10-23T06:33:40.688Z,20.98
2022-10-23T06:34:44.787Z,20.96
2022-10-23T06:35:48.880Z,20.98
2022-10-23T06:36:53.008Z,20.98
2022-10-23T06:37:57.107Z,21.01
2022-10-23T06:39:01.198Z,20.98
2022-10-23T06:40:05.307Z,20.92
2022-10-23T06:41:09.417Z,20.91
2022-10-23T06:42:13.538Z,20.9
2022-10-23T06:43:17.622Z,20.91
2022-10-23T06:44:21.731Z,20.93
2022-10-23T06:45:25.832Z,20.95
2022-10-23T06:46:29.920Z,21.05
2022-10-23T06:47:34.022Z,21.28
2022-10-23T06:48:38.206Z,21.42
2022-10-23T06:49:42.308Z,21.54
2022-10-23T06:50:46.457Z,21.59
2022-10-23T06:51:50.553Z,21.46
2022-10-23T06:52:54.688Z,21.6
2022-10-23T06:53:58.815Z,21.55
2022-10-23T06:55:02.879Z,21.65
2022-10-23T06:56:06.985Z,21.61
2022-10-23T06:57:11.075Z,21.62
2022-10-23T06:58:15.186Z,21.6
2022-10-23T06:59:19.262Z,21.51
2022-10-23T07:00:23.349Z,21.43
2022-10-23T07:01:27.595Z,21.28
2022-10-23T07:02:32.343Z,21.23
2022-10-23T07:03:36.455Z,21.17
2022-10-23T07:04:40.581Z,21.25
2022-10-23T07:05:44.723Z,21.3
2022-10-23T07:06:48.809Z,21.25
2022-10-23T07:07:52.885Z,21.38
2022-10-23T07:08:57.073Z,21.35
2022-10-23T07:10:01.207Z,21.48
2022-10-23T07:11:05.557Z,21.35
2022-10-23T07:12:09.839Z,21.13
2022-10-23T07:13:14.298Z,21.11
2022-10-23T07:14:27.411Z,21.04
2022-10-23T07:15:34.425Z,21
2022-10-23T07:16:38.627Z,20.95
2022-10-23T07:17:42.721Z,20.95
2022-10-23T07:18:46.868Z,20.96
2022-10-23T07:19:51.062Z,20.96
2022-10-23T07:20:55.174Z,20.96
2022-10-23T07:21:59.290Z,20.96
2022-10-23T07:23:03.423Z,20.96
2022-10-23T07:24:07.577Z,20.91
2022-10-23T07:25:11.744Z,20.95
2022-10-23T07:26:15.934Z,20.92
2022-10-23T07:27:20.258Z,20.9
2022-10-23T07:28:24.358Z,20.93
2022-10-23T07:29:28.556Z,20.92
2022-10-23T07:30:32.904Z,20.9
2022-10-23T07:31:39.697Z,20.93
2022-10-23T07:32:43.832Z,20.94
2022-10-23T07:33:48.073Z,20.93
2022-10-23T07:34:54.685Z,20.92
2022-10-23T07:35:58.836Z,20.96
2022-10-23T07:37:02.983Z,20.92
2022-10-23T07:38:07.091Z,20.91
2022-10-23T07:39:11.187Z,20.92
2022-10-23T07:40:15.364Z,20.91
2022-10-23T07:41:19.512Z,20.91
2022-10-23T07:42:25.559Z,20.89
2022-10-23T07:43:29.683Z,20.89
2022-10-23T07:44:39.240Z,20.86
2022-10-23T07:45:43.401Z,20.89
2022-10-23T07:46:47.716Z,20.88
2022-10-23T07:47:51.852Z,20.88
2022-10-23T07:48:56.147Z,20.87
2022-10-23T07:50:03.743Z,20.89
2022-10-23T07:51:10.268Z,20.89
2022-10-23T07:52:14.432Z,20.84
2022-10-23T07:53:18.601Z,20.87
2022-10-23T07:54:22.943Z,20.88
2022-10-23T07:55:27.098Z,20.84
2022-10-23T07:56:31.232Z,20.84
2022-10-23T07:57:38.279Z,20.87
2022-10-23T07:58:42.444Z,20.87
2022-10-23T07:59:46.593Z,20.83
2022-10-23T08:00:50.752Z,20.83
2022-10-23T08:01:55.659Z,20.86
2022-10-23T08:03:00.615Z,20.86
2022-10-23T08:04:06.500Z,20.86
2022-10-23T08:05:16.634Z,20.85
2022-10-23T08:06:23.384Z,20.85
2022-10-23T08:07:27.529Z,20.84
2022-10-23T08:08:34.762Z,20.84
2022-10-23T08:09:39.339Z,20.84
2022-10-23T08:10:45.853Z,20.85
2022-10-23T08:11:49.981Z,20.81
2022-10-23T08:12:54.143Z,20.83
2022-10-23T08:13:58.416Z,20.86
2022-10-23T08:15:02.626Z,20.87
2022-10-23T08:16:06.776Z,20.84
2022-10-23T08:17:10.936Z,20.89
2022-10-23T08:18:15.068Z,20.89
2022-10-23T08:19:19.252Z,20.9
2022-10-23T08:20:23.395Z,20.86
2022-10-23T08:21:27.540Z,20.89
2022-10-23T08:22:31.861Z,20.92
2022-10-23T08:23:36.248Z,20.93
2022-10-23T08:24:40.716Z,20.93
2022-10-23T08:25:45.128Z,20.93
2022-10-23T08:26:49.312Z,21.02
2022-10-23T08:27:53.441Z,21.09
2022-10-23T08:28:57.599Z,21.04
2022-10-23T08:30:01.983Z,21.02
2022-10-23T08:31:06.645Z,21.01
2022-10-23T08:32:10.810Z,21
2022-10-23T08:33:15.299Z,20.96
2022-10-23T08:34:19.442Z,21
2022-10-23T08:35:23.591Z,20.99
2022-10-23T08:36:27.760Z,21.01
2022-10-23T08:37:31.880Z,21.03
2022-10-23T08:38:35.952Z,21.1
2022-10-23T08:40:36.439Z,21.13
2022-10-23T08:41:46.946Z,21.12
2022-10-23T08:42:51.051Z,21.15
2022-10-23T08:43:55.151Z,21.18
2022-10-23T08:44:59.302Z,21.19
2022-10-23T08:46:05.030Z,21.19
2022-10-23T08:47:12.658Z,21.19
2022-10-23T08:48:16.816Z,21.16
2022-10-23T08:49:20.947Z,21.2
2022-10-23T08:53:36.479Z,21.2
2022-10-23T08:54:40.604Z,21.27
2022-10-23T08:55:44.715Z,21.31
2022-10-23T08:56:48.861Z,21.31
2022-10-23T08:57:53.103Z,21.28
2022-10-23T08:58:58.666Z,21.37
2022-10-23T09:00:02.825Z,21.39
2022-10-23T09:01:07.046Z,21.39
2022-10-23T09:02:11.753Z,21.4
2022-10-23T09:03:16.180Z,21.41
2022-10-23T09:04:20.280Z,21.42
2022-10-23T09:05:24.391Z,21.39
2022-10-23T09:06:28.538Z,21.43
2022-10-23T09:07:32.697Z,21.45
2022-10-23T09:08:36.798Z,21.5
2022-10-23T09:09:40.949Z,21.55
2022-10-23T09:10:46.041Z,21.55
2022-10-23T09:11:54.750Z,21.58
2022-10-23T09:12:58.943Z,21.61
2022-10-23T09:14:03.129Z,21.61
2022-10-23T09:15:07.273Z,21.61
2022-10-23T09:16:11.454Z,21.58
2022-10-23T09:17:15.621Z,21.54
2022-10-23T09:18:19.741Z,21.58
2022-10-23T09:19:23.922Z,21.59
2022-10-23T09:20:28.122Z,21.64
2022-10-23T09:21:32.350Z,21.69
2022-10-23T09:22:36.505Z,21.69
2022-10-23T09:23:40.661Z,21.65
2022-10-23T09:24:44.815Z,21.69
2022-10-23T09:25:56.171Z,21.65
2022-10-23T09:27:00.543Z,21.66
2022-10-23T09:28:05.673Z,21.68
2022-10-23T09:29:09.989Z,21.74
2022-10-23T09:30:14.129Z,21.69
2022-10-23T09:31:18.204Z,21.73
2022-10-23T09:32:22.396Z,21.73
2022-10-23T09:33:26.523Z,21.71
2022-10-23T09:34:30.643Z,21.74
2022-10-23T09:35:34.915Z,21.71
2022-10-23T09:36:39.014Z,21.71
2022-10-23T09:37:43.581Z,21.68
2022-10-23T09:38:48.502Z,21.69
2022-10-23T09:39:52.665Z,21.71
2022-10-23T09:40:56.773Z,21.75
2022-10-23T09:42:00.893Z,21.74
2022-10-23T09:43:05.052Z,21.7
2022-10-23T09:44:09.183Z,21.74
2022-10-23T09:45:13.328Z,21.74
2022-10-23T09:46:17.499Z,21.73
2022-10-23T09:47:21.634Z,21.78
2022-10-23T09:48:25.814Z,21.78
2022-10-23T09:49:30.011Z,21.77
2022-10-23T09:50:34.149Z,21.81
2022-10-23T09:51:38.377Z,21.84
2022-10-23T09:52:45.138Z,21.78
2022-10-23T09:53:49.306Z,21.78
2022-10-23T09:54:55.689Z,21.77
2022-10-23T09:55:59.814Z,21.76
2022-10-23T09:57:03.953Z,21.76
2022-10-23T09:58:08.209Z,21.76
2022-10-23T09:59:12.309Z,21.74
2022-10-23T10:00:16.532Z,21.78
2022-10-23T10:01:20.867Z,21.81
2022-10-23T10:02:25.346Z,21.79
2022-10-23T10:03:29.538Z,21.81
2022-10-23T10:04:33.696Z,21.81
2022-10-23T10:05:37.865Z,21.74
2022-10-23T10:07:46.216Z,21.76
2022-10-23T10:08:50.329Z,21.78
2022-10-23T10:09:54.454Z,21.77
2022-10-23T10:10:58.612Z,21.77
2022-10-23T10:12:02.709Z,21.77
2022-10-23T10:13:06.829Z,21.78
2022-10-23T10:14:17.128Z,21.74
2022-10-23T10:15:21.257Z,21.81
2022-10-23T10:16:25.320Z,21.8
2022-10-23T10:17:29.615Z,21.71
2022-10-23T10:18:33.723Z,21.45
2022-10-23T10:19:37.890Z,21.78
2022-10-23T10:20:42.011Z,21.79
2022-10-23T10:21:46.142Z,21.78
2022-10-23T10:22:50.309Z,21.81
2022-10-23T10:23:54.659Z,21.82
2022-10-23T10:24:58.859Z,21.81
2022-10-23T10:26:03.038Z,21.81
2022-10-23T10:27:07.233Z,21.76
2022-10-23T10:28:11.410Z,21.8
2022-10-23T10:29:15.522Z,21.78
2022-10-23T10:30:19.644Z,21.77
2022-10-23T10:31:23.789Z,21.82
2022-10-23T10:32:27.932Z,21.83
2022-10-23T10:33:32.050Z,21.88
2022-10-23T10:34:36.221Z,21.88
2022-10-23T10:35:41.939Z,21.91
2022-10-23T10:36:46.101Z,21.93
2022-10-23T10:37:50.546Z,21.94
2022-10-23T10:38:55.780Z,21.95
2022-10-23T10:39:59.929Z,21.94
2022-10-23T10:41:04.126Z,21.96
2022-10-23T10:42:08.260Z,22.01
2022-10-23T10:43:12.420Z,21.98
2022-10-23T10:44:16.558Z,21.98
2022-10-23T10:45:22.518Z,22.05
2022-10-23T10:46:26.795Z,22.06
2022-10-23T10:47:30.910Z,22.09
2022-10-23T10:48:35.001Z,22.09
2022-10-23T10:49:39.134Z,22.1
2022-10-23T10:50:43.268Z,22.07
2022-10-23T10:51:48.562Z,22.06
2022-10-23T10:52:52.941Z,22.1
2022-10-23T10:53:57.210Z,22.07
2022-10-23T10:55:03.081Z,22.07
2022-10-23T10:57:13.945Z,22.07
2022-10-23T10:58:18.177Z,22.09
2022-10-23T10:59:22.337Z,22.08
2022-10-23T11:00:29.603Z,22.13
2022-10-23T11:01:33.990Z,22.13
2022-10-23T11:02:38.704Z,22.13
2022-10-23T11:03:42.885Z,22.16
2022-10-23T11:04:47.015Z,22.15
2022-10-23T11:05:51.223Z,22.16
2022-10-23T11:06:55.476Z,22.11
2022-10-23T11:07:59.615Z,22.1
2022-10-23T11:09:19.605Z,22.09
2022-10-23T11:10:24.530Z,22.13
2022-10-23T11:11:28.669Z,22.09
2022-10-23T11:12:32.808Z,22.09
2022-10-23T11:13:37.005Z,22.06
2022-10-23T11:14:41.100Z,22.05
2022-10-23T11:15:45.314Z,22.09
2022-10-23T11:16:49.693Z,22.07
2022-10-23T11:17:54.284Z,22.07
2022-10-23T11:18:58.367Z,22.1
2022-10-23T11:20:02.508Z,22.1
2022-10-23T11:21:06.719Z,22.06
2022-10-23T11:22:10.862Z,22.12
2022-10-23T11:23:14.997Z,22.1
2022-10-23T11:24:19.176Z,22.1
2022-10-23T11:25:23.323Z,22.11
2022-10-23T11:26:27.463Z,22.1
2022-10-23T11:27:31.553Z,22.08
2022-10-23T11:28:35.672Z,22.12
2022-10-23T11:29:39.762Z,22.14
2022-10-23T11:30:43.949Z,22.16
2022-10-23T11:31:48.068Z,22.18
2022-10-23T11:32:52.186Z,22.14
2022-10-23T11:33:56.332Z,22.15
2022-10-23T11:35:00.454Z,22.18
2022-10-23T11:36:04.641Z,22.23
2022-10-23T11:37:08.811Z,22.27
2022-10-23T11:38:12.958Z,22.29
2022-10-23T11:39:17.069Z,22.31
2022-10-23T11:40:21.230Z,22.25
2022-10-23T11:41:26.500Z,22.28
2022-10-23T11:42:31.414Z,22.22
2022-10-23T11:43:35.503Z,22.23
2022-10-23T11:44:42.679Z,22.23
2022-10-23T11:45:46.830Z,22.2
2022-10-23T11:46:50.997Z,22.19
2022-10-23T11:47:55.126Z,22.19
2022-10-23T11:48:59.255Z,22.21
2022-10-23T11:50:06.605Z,22.2
2022-10-23T11:51:10.806Z,22.19
2022-10-23T11:52:21.430Z,22.19
2022-10-23T11:53:25.580Z,22.19
2022-10-23T11:54:30.894Z,22.19
2022-10-23T11:55:35.091Z,22.15
2022-10-23T11:56:39.225Z,22.16
2022-10-23T11:57:43.382Z,22.16
2022-10-23T11:58:50.051Z,22.19
2022-10-23T11:59:54.208Z,22.18
2022-10-23T12:01:02.890Z,22.16
2022-10-23T12:02:10.543Z,22.14
2022-10-23T12:03:14.966Z,22.08
2022-10-23T12:04:19.090Z,22.1
2022-10-23T12:05:23.225Z,22.07
2022-10-23T12:06:27.355Z,22.05
2022-10-23T12:07:31.500Z,22.04
2022-10-23T12:08:35.644Z,22
2022-10-23T12:09:39.788Z,22.03
2022-10-23T12:10:43.899Z,22.02
2022-10-23T12:11:48.006Z,22.05
2022-10-23T12:12:52.151Z,22.05
2022-10-23T12:13:56.317Z,22
2022-10-23T12:15:00.448Z,21.97
2022-10-23T12:16:04.609Z,21.97
2022-10-23T12:17:08.790Z,21.98
2022-10-23T12:18:12.942Z,21.97
2022-10-23T12:19:17.079Z,21.97
2022-10-23T12:20:21.239Z,21.92
2022-10-23T12:21:25.413Z,21.88
2022-10-23T12:22:29.633Z,21.93
2022-10-23T12:23:36.670Z,21.96
2022-10-23T12:24:42.674Z,21.99
2022-10-23T12:25:46.793Z,21.96
2022-10-23T12:26:53.515Z,21.98
2022-10-23T12:27:57.680Z,21.94
2022-10-23T12:29:01.836Z,21.9
2022-10-23T12:30:05.945Z,21.97
2022-10-23T12:31:10.060Z,21.97
2022-10-23T12:32:14.179Z,21.99
2022-10-23T12:33:18.283Z,21.97
2022-10-23T12:34:22.426Z,22.09
2022-10-23T12:35:26.628Z,22.11
2022-10-23T12:36:30.779Z,22.1
2022-10-23T12:37:34.960Z,22.12
2022-10-23T12:38:39.122Z,22.1
2022-10-23T12:39:43.287Z,22.1
2022-10-23T12:40:47.709Z,22.03
2022-10-23T12:41:51.915Z,21.83
2022-10-23T12:42:56.077Z,22.12
2022-10-23T12:44:00.277Z,22.1
2022-10-23T12:45:04.488Z,22.16
2022-10-23T12:46:08.635Z,22.09
2022-10-23T12:47:19.171Z,21.98
2022-10-23T12:48:23.355Z,22.01
2022-10-23T12:49:27.870Z,21.98
2022-10-23T12:50:34.013Z,21.96
2022-10-23T12:51:38.294Z,21.95
2022-10-23T12:52:42.627Z,21.88
2022-10-23T12:53:47.667Z,21.88
2022-10-23T12:54:51.791Z,21.93
2022-10-23T12:55:56.056Z,22.02
2022-10-23T12:57:00.299Z,22.07
2022-10-23T12:58:04.533Z,22.02
2022-10-23T12:59:08.698Z,22.09
2022-10-23T13:00:12.835Z,22.04
2022-10-23T13:01:17.076Z,22.07
2022-10-23T13:02:21.745Z,22.14
2022-10-23T13:03:26.502Z,22.1
2022-10-23T13:04:30.671Z,22.1
2022-10-23T13:05:34.813Z,22.06
2022-10-23T13:06:38.964Z,22.1
2022-10-23T13:07:43.370Z,22.1
2022-10-23T13:08:48.494Z,22.08
2022-10-23T13:09:52.681Z,21.97
2022-10-23T13:10:56.818Z,21.93
2022-10-23T13:12:00.890Z,21.93
2022-10-23T13:13:05.061Z,21.92
2022-10-23T13:14:09.281Z,21.95
2022-10-23T13:15:13.457Z,21.93
2022-10-23T13:16:17.669Z,21.86
2022-10-23T13:17:21.803Z,21.64
2022-10-23T13:18:25.914Z,21.87
2022-10-23T13:19:30.069Z,21.87
2022-10-23T13:20:34.249Z,21.87
2022-10-23T13:21:38.375Z,21.87
2022-10-23T13:22:42.826Z,21.88
2022-10-23T13:23:48.117Z,21.87
2022-10-23T13:24:52.248Z,21.85
2022-10-23T13:25:56.467Z,21.8
2022-10-23T13:27:00.645Z,21.82
2022-10-23T13:28:04.835Z,21.95
2022-10-23T13:29:09.731Z,21.93
2022-10-23T13:30:14.109Z,21.55
2022-10-23T13:31:18.221Z,21.9
2022-10-23T13:32:22.346Z,21.88
2022-10-23T13:33:26.486Z,21.89
2022-10-23T13:34:30.636Z,21.84
2022-10-23T13:35:34.795Z,21.79
2022-10-23T13:36:38.916Z,21.86
2022-10-23T13:38:47.185Z,21.87
2022-10-23T13:39:51.368Z,21.87
2022-10-23T13:40:55.483Z,21.86
2022-10-23T13:41:59.646Z,21.89
2022-10-23T13:43:03.785Z,21.87
2022-10-23T13:44:07.932Z,21.83
2022-10-23T13:45:12.081Z,21.87
2022-10-23T13:46:16.201Z,21.87
2022-10-23T13:47:20.323Z,21.87
2022-10-23T13:48:24.474Z,21.86
2022-10-23T13:49:28.598Z,21.84
2022-10-23T13:50:32.842Z,21.88
2022-10-23T13:51:38.742Z,21.88
2022-10-23T13:52:46.074Z,21.91
2022-10-23T13:53:50.229Z,21.91
2022-10-23T13:54:54.375Z,21.9
2022-10-23T13:55:58.769Z,21.86
2022-10-23T13:57:03.098Z,21.91
2022-10-23T13:58:07.245Z,21.89
2022-10-23T13:59:11.358Z,21.91
2022-10-23T14:00:15.786Z,21.9
2022-10-23T14:01:20.137Z,21.86
2022-10-23T14:02:24.864Z,21.86
2022-10-23T14:03:29.470Z,21.81
2022-10-23T14:04:33.615Z,21.84